Historyczne dane pomiarowe

Dodano dane terminowe – wersja testowa.

Dane z okresu 1951-2019

Wersja bazy: 1.34 [2019-03-16, lista zmian], aktualizacja planowana na 2019-04-15

Dane meteo z obszaru Polski uzyskane na podstawie danych udostępnionych przez Instytut Meteorologii i Gospodarki Wodnej – Państwowy Instytut Badawczy.

 

Wybierz Datę:    

       

TemperaturaWilgotnośćWiatrCiśnienieOpadyŚniegCzas trwania zjawisk
 Stacja t tx tn tng RH VA  wxwx mslp ppp RRR   cm mm wxwxwxwxwxwxwx
1961-08-14 12.9 18.2 8.3- 88.3- 5.0 1.0---- 0.0------------
1961-08-13 12.6 18.3 9.1- 84.3- 4.0 2.0---- 0.0------------
1961-08-12 14.7 20.1 11.5- 88.8- 5.0 1.0---- 3.4------------
1961-08-11 16.9 18.7 14.7- 95.5- 8.0 0.0---- 2.7------------
1961-08-10 17.5 23.2 12.3- 85.5- 7.7 0.7---- 6.7------------
1961-08-09 16.9 23.1 13.3- 79.3- 3.7 1.3---- 0.0------------
1961-08-08 16.6 20.4 7.5- 76.3- 5.7 1.3---- 0.0------------
1961-08-07 13.5 19.2 12.2- 96.3- 5.3 0.7---- 11.7------------
1961-08-06 18.4 24.2 15.6- 83.8- 4.3 1.7---- 2.1------------
1961-08-05 17.7 21.5 13.0- 86.5- 7.3 1.0---- 5.4------------
1961-08-04 13.8 15.4 9.2- 93.0- 8.0 3.3---- 4.6------------
1961-08-03 12.6 16.4 11.7- 96.5- 5.7 0.7---- 19.1------------
1961-08-02 15.0 18.4 10.6- 89.3- 6.3 0.3---- 3.2------------
1961-08-01 13.9 18.2 12.2- 91.3- 5.3 4.3---- 5.6------------
1961-07-31 13.6 16.1 12.2- 92.5- 8.0 5.0---- 48.7------------
1961-07-30 14.5 15.7 10.6- 91.0- 8.0 2.3---- 0.7------------
1961-07-29 13.6 16.1 11.6- 82.0- 5.0 2.3---- 0.2------------
1961-07-28 12.7 15.2 11.8- 94.3- 8.0 1.0---- 2.4------------
1961-07-27 15.5 17.4 13.4- 86.8- 7.3 2.3---- 3.8------------
1961-07-26 16.8 21.9 13.7- 87.5- 7.3 2.7---- 3.9------------
1961-07-25 15.5 18.1 12.2- 78.3- 7.0 2.0---- 1.0------------
1961-07-24 14.1 16.4 10.8- 78.8- 5.7 3.0---- 0.0------------
1961-07-23 13.9 17.3 12.8- 86.3- 7.3 2.7---- 0.2------------
1961-07-22 14.2 17.4 11.8- 89.3- 8.0 2.7---- 0.2------------
1961-07-21 14.6 18.4 13.5- 92.8- 7.0 2.3---- 9.6------------
1961-07-20 14.8 19.0 12.2- 88.5- 7.0 2.0---- 5.0------------
1961-07-19 15.5 20.7 11.9- 80.0- 3.0 1.7---- 0.0------------
1961-07-18 14.7 18.5 9.8- 91.8- 6.0 1.7---- 0.6------------
1961-07-17 14.3 18.1 10.3- 92.3- 6.7 0.7---- 1.7------------
1961-07-16 15.3 21.7 12.5- 85.5- 7.0 0.7---- 2.6------------
1961-07-15 17.1 22.0 12.5- 73.5- 4.3 0.7---- 1.8------------
1961-07-14 13.1 18.3 12.0- 86.8- 6.3 3.7---- 0.5------------
1961-07-13 19.0 26.6 15.6- 81.5- 6.3 2.7---- 9.2------------
1961-07-12 18.0 24.1 14.9- 82.5- 7.3 0.7---- 0.0------------
1961-07-11 15.7 19.3 10.4- 81.5- 6.3 2.0---- 8.7------------
1961-07-10 12.6 15.7 9.8- 85.3- 5.7 2.3---- 4.5------------
1961-07-09 13.7 16.2 13.0- 93.8- 7.7 1.3---- 16.3------------
1961-07-08 15.0 19.9 11.2- 87.8- 7.7 1.7---- 13.9------------
1961-07-07 13.4 18.2 9.5- 77.0- 5.0 3.7---- 0.0------------
1961-07-06 13.0 17.8 8.2- 78.8- 7.0 3.3---- 0.1------------
1961-07-05 13.0 16.7 10.5- 68.8- 5.7 6.3---- 2.4------------
1961-07-04 15.4 18.4 11.4- 77.0- 6.3 3.3---- 2.3------------
1961-07-03 20.8 31.7 15.6- 73.0- 2.7 1.3---- 1.3------------
1961-07-02 22.7 30.3 10.6- 62.0- 1.0 0.7---- 0.0------------
1961-07-01 19.0 26.8 5.5- 64.5- 0.0 1.0---- 0.0------------
1961-06-30 17.5 23.7 9.3- 69.8- 0.0 1.0---- 0.0------------
1961-06-29 16.2 21.7 11.4- 75.3- 4.0 2.0---- 0.0------------
1961-06-28 14.8 18.7 10.9- 71.8- 4.3 4.3---- 0.3------------
1961-06-27 19.8 25.4 17.3- 81.3- 6.3 3.3---- 1.3------------
1961-06-26 21.0 26.8 11.6- 66.0- 0.0 1.0---- 0.0------------
1961-06-25 20.5 27.1 12.9- 66.3- 1.7 1.7---- 0.0------------
1961-06-24 18.0 23.5 12.9- 65.0- 5.3 2.0---- 0.0------------
1961-06-23 17.5 21.4 9.9- 65.5- 4.3 2.7---- 0.0------------
1961-06-22 16.5 21.9 6.8- 69.5- 3.7 1.3---- 0.0------------
1961-06-21 13.2 18.3 9.6- 78.3- 4.3 2.0---- 0.0------------
1961-06-20 14.6 19.6 8.4- 69.8- 3.7 2.0---- 0.0------------
1961-06-19 14.5 18.2 10.7- 63.3- 3.0 3.3---- 0.1------------
1961-06-18 18.2 24.5 15.0- 80.3- 5.0 3.0---- 1.9------------
1961-06-17 18.1 22.0 9.6- 76.5- 4.3 1.0---- 0.0------------
1961-06-16 13.0 18.0 10.9- 86.8- 5.3 1.3---- 0.0------------
353.6 ms

 

Źródłem pochodzenia danych jest Instytut Meteorologii i Gospodarki Wodnej – Państwowy Instytut Badawczy. Dane Instytutu Meteorologii i Gospodarki Wodnej – Państwowego Instytutu Badawczego zostały przetworzone.

Dane źródłowe można odnaleźć na stronie https://dane.imgw.pl